Αναφορές METAR Αεροδρομίων

 

LGTS - THESSALONIKI - GREECE
Ενημερώθηκε: 09/12/2023 06:50
Αραιές Νεφώσεις
Αραιές Νεφώσεις
 Ανεμος από ΒΒΔ
Ανεμος: ΒΒΔ 19 km/h
Θερμοκρασία: 6°C
Wind Chill: 3°C
Σημ. Δρόσου: 1°C
Υγρασία: 71%
Βαρόμετρο: 1017 hPa
Clouds: Αραιές Νεφώσεις
Visibility: 10 km
Cloud details: Αραιές Νεφώσεις 762 m
2023/12/09 04:50 LGTS 090450Z 33010KT 9999 FEW025 06/01 Q1017 NOSIG
LGLR - LARTISA - GREECE
Ενημερώθηκε: 09/12/2023 06:50
Αραιές Νεφώσεις
Αραιές Νεφώσεις
 Ανεμος από calm
Ανεμος: Απνοια
Θερμοκρασία: 1°C
Σημ. Δρόσου: -2°C
Υγρασία: 81%
Βαρόμετρο: 1017 hPa
Clouds: Αραιές Νεφώσεις
Visibility: 10 km
Cloud details: Αραιές Νεφώσεις 914 m
2023/12/09 04:50 LGLR 090450Z 00000KT 9999 FEW030 01/M02 Q1017 RMK FEW080 BLU
 
LGKZ - KOZANI - GREECE
Ενημερώθηκε: 09/12/2023 06:50

 Ανεμος από Β
Ανεμος: Β 13 km/h
Θερμοκρασία: -2°C
Wind Chill: -7°C
Σημ. Δρόσου: -5°C
Υγρασία: 80%
Βαρόμετρο: 1016 hPa
2023/12/09 04:50 LGKZ 090450Z AUTO 36007KT 310V030 //// // ////// M02/M05 Q1016 RE//
LGKV - KAVALA - GREECE
Ενημερώθηκε: 09/12/2023 06:50
Μερικώς νεφελώδης
Μερικώς νεφελώδης
 Ανεμος από calm
Ανεμος: Απνοια
Θερμοκρασία: 3°C
Σημ. Δρόσου: 0°C
Υγρασία: 81%
Βαρόμετρο: 1016 hPa
Clouds: Μερικώς νεφελώδης
Visibility: 10 km
Cloud details: Μερικώς νεφελώδης 762 m
Μερικώς νεφελώδης 2438 m
2023/12/09 04:50 LGKV 090450Z 00000KT 9999 SCT025 SCT080 03/00 Q1016
 
LGIO - IOANNINA - GREECE
Ενημερώθηκε: 09/12/2023 06:50

 Ανεμος από varies
Ανεμος: varies 4 km/h
Θερμοκρασία: -3°C
Σημ. Δρόσου: -3°C
Υγρασία: 100%
Βαρόμετρο: 1014 hPa
2023/12/09 04:50 LGIO 090450Z AUTO VRB02KT //// // ////// M03/M03 Q1014 RE//
LGBL - BOLOS - GREECE
Ενημερώθηκε: 09/12/2023 06:50
Αραιές Νεφώσεις
Αραιές Νεφώσεις
 Ανεμος από Δ
Ανεμος: Δ 15 km/h
Θερμοκρασία: 4°C
Wind Chill: 1°C
Σημ. Δρόσου: 0°C
Υγρασία: 75%
Βαρόμετρο: 1017 hPa
Clouds: Αραιές Νεφώσεις
Visibility: 10 km
Cloud details: Αραιές Νεφώσεις 914 m
2023/12/09 04:50 LGBL 090450Z 28008KT 9999 FEW030 04/00 Q1017
 
LGMT - MITILINI - GREECE
Ενημερώθηκε: 09/12/2023 06:50
Σχεδόν νεφελώδης
Σχεδόν νεφελώδης
 Ανεμος από Β
Ανεμος: Β 15 km/h
Θερμοκρασία: 9°C
Wind Chill: 7°C
Σημ. Δρόσου: 6°C
Υγρασία: 82%
Βαρόμετρο: 1012 hPa
Clouds: Σχεδόν νεφελώδης
Visibility: 10 km
Cloud details: Αραιές Νεφώσεις 610 m
Σχεδόν νεφελώδης 762 m
2023/12/09 04:50 LGMT 090450Z 35008KT 9999 FEW020 BKN025 09/06 Q1012
LGAV - ATHENS - GREECE
Ενημερώθηκε: 09/12/2023 06:50
Μερικώς νεφελώδης
Μερικώς νεφελώδης
 Ανεμος από varies
Ανεμος: varies 4 km/h
Θερμοκρασία: 8°C
Σημ. Δρόσου: 3°C
Υγρασία: 71%
Βαρόμετρο: 1014 hPa
Clouds: Μερικώς νεφελώδης
Visibility: 10 km
Cloud details: Μερικώς νεφελώδης 1219 m
2023/12/09 04:50 LGAV 090450Z VRB02KT 9999 SCT040 08/03 Q1014 NOSIG
 
LGRP - RODOS - GREECE
Ενημερώθηκε: 09/12/2023 06:50
Μερικώς νεφελώδης
Μερικώς νεφελώδης
 Ανεμος από ΒΔ
Ανεμος: ΒΔ 19 km/h
Θερμοκρασία: 14°C
Σημ. Δρόσου: 8°C
Υγρασία: 67%
Βαρόμετρο: 1008 hPa
Clouds: Μερικώς νεφελώδης
Visibility: 10 km
Cloud details: Αραιές Νεφώσεις 549 m
Μερικώς νεφελώδης 762 m
2023/12/09 04:50 LGRP 090450Z 31010KT 9999 FEW018 SCT025 14/08 Q1008 NOSIG
LGIR - HRAKLIO/KRITI - GREECE
Ενημερώθηκε: 09/12/2023 06:50
Μερικώς νεφελώδης
Μερικώς νεφελώδης
 Ανεμος από ΒΔ
Ανεμος: ΒΔ 22 km/h
Θερμοκρασία: 14°C
Σημ. Δρόσου: 6°C
Υγρασία: 59%
Βαρόμετρο: 1012 hPa
Clouds: Μερικώς νεφελώδης
Visibility: 10 km
Cloud details: Μερικώς νεφελώδης 610 m
2023/12/09 04:50 LGIR 090450Z 32012KT 9999 SCT020 14/06 Q1012 NOSIG
 
LGMK - MIKONOS - GREECE
Ενημερώθηκε: 08/12/2023 19:50
NOT Current
Μερικώς νεφελώδης
Μερικώς νεφελώδης
 Ανεμος από ΒΒΔ
Ανεμος: ΒΒΔ 39 km/h, Ριπή: 59 km/h
Θερμοκρασία: 12°C
Σημ. Δρόσου: 8°C
Υγρασία: 77%
Βαρόμετρο: 1010 hPa
Clouds: Μερικώς νεφελώδης
Visibility: 10 km
Cloud details: Μερικώς νεφελώδης 457 m
2023/12/08 17:50 LGMK 081750Z 34021G32KT 9999 SCT015 12/08 Q1010
LGKR - KERKIRA - GREECE
Ενημερώθηκε: 09/12/2023 06:50
Αραιές Νεφώσεις
Αραιές Νεφώσεις
 Ανεμος από varies
Ανεμος: varies 4 km/h
Θερμοκρασία: 5°C
Σημ. Δρόσου: 3°C
Υγρασία: 87%
Βαρόμετρο: 1012 hPa
Clouds: Αραιές Νεφώσεις
Visibility: 10 km
Cloud details: Αραιές Νεφώσεις 549 m
2023/12/09 04:50 LGKR 090450Z VRB02KT 9999 FEW018 05/03 Q1012 NOSIG